sensor_id;sensor_type;location;lat;lon;timestamp;P1;durP1;ratioP1;P2;durP2;ratioP2
72065;SDS011;59939;52.516;13.420;2022-11-25T00:00:23;123.50;;;39.93;;
72065;SDS011;59939;52.516;13.420;2022-11-25T00:03:31;110.73;;;36.70;;
72065;SDS011;59939;52.516;13.420;2022-11-25T00:06:43;82.73;;;31.37;;
72065;SDS011;59939;52.516;13.420;2022-11-25T00:09:46;95.00;;;33.60;;
72065;SDS011;59939;52.516;13.420;2022-11-25T00:12:58;117.13;;;36.63;;
72065;SDS011;59939;52.516;13.420;2022-11-25T00:16:06;108.23;;;37.50;;
72065;SDS011;59939;52.516;13.420;2022-11-25T00:19:13;127.63;;;41.43;;
72065;SDS011;59939;52.516;13.420;2022-11-25T00:22:18;148.07;;;43.60;;
72065;SDS011;59939;52.516;13.420;2022-11-25T00:25:22;124.50;;;39.73;;
72065;SDS011;59939;52.516;13.420;2022-11-25T00:28:26;159.40;;;45.03;;
72065;SDS011;59939;52.516;13.420;2022-11-25T00:31:31;148.57;;;40.27;;
72065;SDS011;59939;52.516;13.420;2022-11-25T00:34:43;189.40;;;44.60;;
72065;SDS011;59939;52.516;13.420;2022-11-25T00:37:48;334.23;;;63.03;;
72065;SDS011;59939;52.516;13.420;2022-11-25T00:40:52;181.30;;;45.60;;
72065;SDS011;59939;52.516;13.420;2022-11-25T00:44:16;153.83;;;45.70;;
72065;SDS011;59939;52.516;13.420;2022-11-25T00:47:41;457.97;;;77.27;;
72065;SDS011;59939;52.516;13.420;2022-11-25T00:50:44;378.07;;;64.10;;
72065;SDS011;59939;52.516;13.420;2022-11-25T00:53:49;293.20;;;56.20;;
72065;SDS011;59939;52.516;13.420;2022-11-25T00:56:55;185.70;;;41.40;;
72065;SDS011;59939;52.516;13.420;2022-11-25T01:00:00;153.87;;;37.23;;
72065;SDS011;59939;52.516;13.420;2022-11-25T01:03:03;127.17;;;40.13;;
72065;SDS011;59939;52.516;13.420;2022-11-25T01:06:09;107.60;;;37.33;;
72065;SDS011;59939;52.516;13.420;2022-11-25T01:09:13;155.83;;;46.60;;
72065;SDS011;59939;52.516;13.420;2022-11-25T01:12:17;140.33;;;44.47;;
72065;SDS011;59939;52.516;13.420;2022-11-25T01:15:21;195.63;;;49.40;;
72065;SDS011;59939;52.516;13.420;2022-11-25T01:18:26;135.90;;;40.97;;
72065;SDS011;59939;52.516;13.420;2022-11-25T01:21:31;116.20;;;39.73;;
72065;SDS011;59939;52.516;13.420;2022-11-25T01:24:36;111.40;;;38.87;;
72065;SDS011;59939;52.516;13.420;2022-11-25T01:27:40;127.07;;;39.90;;
72065;SDS011;59939;52.516;13.420;2022-11-25T01:30:45;129.83;;;40.37;;
72065;SDS011;59939;52.516;13.420;2022-11-25T01:33:57;121.87;;;41.47;;
72065;SDS011;59939;52.516;13.420;2022-11-25T01:37:03;121.40;;;40.73;;
72065;SDS011;59939;52.516;13.420;2022-11-25T01:40:08;135.80;;;41.27;;
72065;SDS011;59939;52.516;13.420;2022-11-25T01:43:13;128.57;;;40.23;;
72065;SDS011;59939;52.516;13.420;2022-11-25T01:46:24;122.80;;;40.17;;
72065;SDS011;59939;52.516;13.420;2022-11-25T01:52:46;117.37;;;40.67;;
72065;SDS011;59939;52.516;13.420;2022-11-25T01:55:54;116.67;;;36.90;;
72065;SDS011;59939;52.516;13.420;2022-11-25T01:59:02;118.10;;;39.77;;
72065;SDS011;59939;52.516;13.420;2022-11-25T02:02:06;115.80;;;36.43;;
72065;SDS011;59939;52.516;13.420;2022-11-25T02:05:12;107.37;;;38.50;;
72065;SDS011;59939;52.516;13.420;2022-11-25T02:08:24;115.67;;;38.90;;
72065;SDS011;59939;52.516;13.420;2022-11-25T02:11:29;123.70;;;39.87;;
72065;SDS011;59939;52.516;13.420;2022-11-25T02:14:34;128.83;;;40.83;;
72065;SDS011;59939;52.516;13.420;2022-11-25T02:17:38;110.70;;;37.77;;
72065;SDS011;59939;52.516;13.420;2022-11-25T02:20:42;107.30;;;38.03;;
72065;SDS011;59939;52.516;13.420;2022-11-25T02:24:00;107.93;;;36.27;;
72065;SDS011;59939;52.516;13.420;2022-11-25T02:27:10;100.00;;;35.20;;
72065;SDS011;59939;52.516;13.420;2022-11-25T02:30:14;105.47;;;35.83;;
72065;SDS011;59939;52.516;13.420;2022-11-25T02:33:19;115.17;;;37.50;;
72065;SDS011;59939;52.516;13.420;2022-11-25T02:36:23;116.10;;;38.63;;
72065;SDS011;59939;52.516;13.420;2022-11-25T02:39:27;111.73;;;35.93;;
72065;SDS011;59939;52.516;13.420;2022-11-25T02:42:32;121.00;;;37.67;;
72065;SDS011;59939;52.516;13.420;2022-11-25T02:45:55;130.73;;;39.27;;
72065;SDS011;59939;52.516;13.420;2022-11-25T02:49:04;139.00;;;43.07;;
72065;SDS011;59939;52.516;13.420;2022-11-25T02:52:12;150.57;;;41.50;;
72065;SDS011;59939;52.516;13.420;2022-11-25T02:55:18;92.87;;;28.87;;
72065;SDS011;59939;52.516;13.420;2022-11-25T02:58:22;123.00;;;36.03;;
72065;SDS011;59939;52.516;13.420;2022-11-25T03:01:26;117.70;;;37.63;;
72065;SDS011;59939;52.516;13.420;2022-11-25T03:04:30;89.97;;;31.70;;
72065;SDS011;59939;52.516;13.420;2022-11-25T03:07:34;97.97;;;36.57;;
72065;SDS011;59939;52.516;13.420;2022-11-25T03:10:39;153.43;;;42.90;;
72065;SDS011;59939;52.516;13.420;2022-11-25T03:13:43;104.80;;;36.60;;
72065;SDS011;59939;52.516;13.420;2022-11-25T03:16:47;101.07;;;38.40;;
72065;SDS011;59939;52.516;13.420;2022-11-25T03:19:51;90.17;;;35.67;;
72065;SDS011;59939;52.516;13.420;2022-11-25T03:22:55;94.23;;;33.33;;
72065;SDS011;59939;52.516;13.420;2022-11-25T03:26:04;103.20;;;34.47;;
72065;SDS011;59939;52.516;13.420;2022-11-25T03:29:09;90.90;;;33.87;;
72065;SDS011;59939;52.516;13.420;2022-11-25T03:32:13;94.80;;;33.63;;
72065;SDS011;59939;52.516;13.420;2022-11-25T03:35:18;96.83;;;34.47;;
72065;SDS011;59939;52.516;13.420;2022-11-25T03:38:22;99.50;;;36.43;;
72065;SDS011;59939;52.516;13.420;2022-11-25T03:41:26;93.20;;;32.30;;
72065;SDS011;59939;52.516;13.420;2022-11-25T03:44:30;93.37;;;32.90;;
72065;SDS011;59939;52.516;13.420;2022-11-25T03:47:34;88.63;;;31.67;;
72065;SDS011;59939;52.516;13.420;2022-11-25T03:50:39;79.83;;;31.33;;
72065;SDS011;59939;52.516;13.420;2022-11-25T03:53:44;101.47;;;35.53;;
72065;SDS011;59939;52.516;13.420;2022-11-25T03:56:50;85.60;;;33.30;;
72065;SDS011;59939;52.516;13.420;2022-11-25T03:59:53;98.50;;;34.83;;
72065;SDS011;59939;52.516;13.420;2022-11-25T04:02:57;93.73;;;34.00;;
72065;SDS011;59939;52.516;13.420;2022-11-25T04:06:01;91.13;;;33.73;;
72065;SDS011;59939;52.516;13.420;2022-11-25T04:09:07;89.00;;;32.60;;
72065;SDS011;59939;52.516;13.420;2022-11-25T04:12:13;75.53;;;30.10;;
72065;SDS011;59939;52.516;13.420;2022-11-25T04:15:45;91.37;;;33.03;;
72065;SDS011;59939;52.516;13.420;2022-11-25T04:18:51;97.57;;;34.97;;
72065;SDS011;59939;52.516;13.420;2022-11-25T04:21:56;99.40;;;33.20;;
72065;SDS011;59939;52.516;13.420;2022-11-25T04:25:05;91.50;;;34.03;;
72065;SDS011;59939;52.516;13.420;2022-11-25T04:28:10;90.73;;;32.67;;
72065;SDS011;59939;52.516;13.420;2022-11-25T04:31:14;79.90;;;32.80;;
72065;SDS011;59939;52.516;13.420;2022-11-25T04:34:20;88.73;;;31.87;;
72065;SDS011;59939;52.516;13.420;2022-11-25T04:37:26;77.03;;;32.53;;
72065;SDS011;59939;52.516;13.420;2022-11-25T04:40:30;79.27;;;31.27;;
72065;SDS011;59939;52.516;13.420;2022-11-25T04:43:47;79.10;;;30.83;;
72065;SDS011;59939;52.516;13.420;2022-11-25T04:46:52;82.47;;;30.97;;
72065;SDS011;59939;52.516;13.420;2022-11-25T04:49:56;83.13;;;29.97;;
72065;SDS011;59939;52.516;13.420;2022-11-25T04:53:01;86.67;;;33.43;;
72065;SDS011;59939;52.516;13.420;2022-11-25T04:56:05;88.63;;;32.10;;
72065;SDS011;59939;52.516;13.420;2022-11-25T04:59:17;84.50;;;32.13;;
72065;SDS011;59939;52.516;13.420;2022-11-25T05:02:40;94.53;;;34.50;;
72065;SDS011;59939;52.516;13.420;2022-11-25T05:05:51;101.97;;;34.70;;
72065;SDS011;59939;52.516;13.420;2022-11-25T05:08:55;91.13;;;32.43;;
72065;SDS011;59939;52.516;13.420;2022-11-25T05:12:01;91.27;;;32.57;;
72065;SDS011;59939;52.516;13.420;2022-11-25T05:15:06;94.50;;;34.30;;
72065;SDS011;59939;52.516;13.420;2022-11-25T05:18:13;95.47;;;34.17;;
72065;SDS011;59939;52.516;13.420;2022-11-25T05:21:21;99.63;;;32.93;;
72065;SDS011;59939;52.516;13.420;2022-11-25T05:24:25;99.70;;;33.10;;
72065;SDS011;59939;52.516;13.420;2022-11-25T05:27:29;98.43;;;35.00;;
72065;SDS011;59939;52.516;13.420;2022-11-25T05:30:37;98.30;;;33.67;;
72065;SDS011;59939;52.516;13.420;2022-11-25T05:33:41;109.87;;;34.00;;
72065;SDS011;59939;52.516;13.420;2022-11-25T05:36:46;119.53;;;36.03;;
72065;SDS011;59939;52.516;13.420;2022-11-25T05:39:51;99.77;;;33.67;;
72065;SDS011;59939;52.516;13.420;2022-11-25T05:43:11;107.73;;;37.07;;
72065;SDS011;59939;52.516;13.420;2022-11-25T05:46:16;109.23;;;35.77;;
72065;SDS011;59939;52.516;13.420;2022-11-25T05:49:25;105.50;;;34.67;;
72065;SDS011;59939;52.516;13.420;2022-11-25T05:52:29;89.60;;;34.57;;
72065;SDS011;59939;52.516;13.420;2022-11-25T05:55:36;107.53;;;36.67;;
72065;SDS011;59939;52.516;13.420;2022-11-25T05:58:44;122.40;;;37.37;;
72065;SDS011;59939;52.516;13.420;2022-11-25T06:01:51;106.03;;;31.57;;
72065;SDS011;59939;52.516;13.420;2022-11-25T06:04:55;92.07;;;34.50;;
72065;SDS011;59939;52.516;13.420;2022-11-25T06:08:00;117.50;;;36.57;;
72065;SDS011;59939;52.516;13.420;2022-11-25T06:11:08;112.67;;;36.10;;
72065;SDS011;59939;52.516;13.420;2022-11-25T06:14:17;106.83;;;36.00;;
72065;SDS011;59939;52.516;13.420;2022-11-25T06:17:22;110.53;;;35.43;;
72065;SDS011;59939;52.516;13.420;2022-11-25T06:20:34;88.40;;;32.87;;
72065;SDS011;59939;52.516;13.420;2022-11-25T06:23:46;88.20;;;33.23;;
72065;SDS011;59939;52.516;13.420;2022-11-25T06:26:54;100.87;;;33.53;;
72065;SDS011;59939;52.516;13.420;2022-11-25T06:30:01;115.20;;;33.67;;
72065;SDS011;59939;52.516;13.420;2022-11-25T06:33:05;120.40;;;35.40;;
72065;SDS011;59939;52.516;13.420;2022-11-25T06:36:10;113.80;;;35.27;;
72065;SDS011;59939;52.516;13.420;2022-11-25T06:39:19;114.40;;;37.40;;
72065;SDS011;59939;52.516;13.420;2022-11-25T06:42:23;133.77;;;38.03;;
72065;SDS011;59939;52.516;13.420;2022-11-25T06:45:27;138.33;;;42.73;;
72065;SDS011;59939;52.516;13.420;2022-11-25T06:48:31;181.93;;;44.80;;
72065;SDS011;59939;52.516;13.420;2022-11-25T06:51:37;299.73;;;60.53;;
72065;SDS011;59939;52.516;13.420;2022-11-25T06:54:41;176.87;;;44.50;;
72065;SDS011;59939;52.516;13.420;2022-11-25T06:57:45;249.30;;;52.67;;
72065;SDS011;59939;52.516;13.420;2022-11-25T07:00:50;194.73;;;47.13;;
72065;SDS011;59939;52.516;13.420;2022-11-25T07:07:23;219.27;;;52.73;;
72065;SDS011;59939;52.516;13.420;2022-11-25T07:10:34;359.77;;;66.60;;
72065;SDS011;59939;52.516;13.420;2022-11-25T07:13:38;479.00;;;84.27;;
72065;SDS011;59939;52.516;13.420;2022-11-25T07:16:44;462.97;;;76.80;;
72065;SDS011;59939;52.516;13.420;2022-11-25T07:19:55;345.40;;;65.30;;
72065;SDS011;59939;52.516;13.420;2022-11-25T07:23:00;522.80;;;77.80;;
72065;SDS011;59939;52.516;13.420;2022-11-25T07:26:10;661.80;;;99.03;;
72065;SDS011;59939;52.516;13.420;2022-11-25T07:29:18;852.30;;;130.33;;
72065;SDS011;59939;52.516;13.420;2022-11-25T07:32:42;917.53;;;138.43;;
72065;SDS011;59939;52.516;13.420;2022-11-25T07:35:46;1139.87;;;171.17;;
72065;SDS011;59939;52.516;13.420;2022-11-25T07:38:51;758.00;;;117.57;;
72065;SDS011;59939;52.516;13.420;2022-11-25T07:41:55;685.23;;;94.30;;
72065;SDS011;59939;52.516;13.420;2022-11-25T07:44:59;764.03;;;114.07;;
72065;SDS011;59939;52.516;13.420;2022-11-25T07:48:17;761.10;;;107.03;;
72065;SDS011;59939;52.516;13.420;2022-11-25T07:51:24;636.67;;;92.37;;
72065;SDS011;59939;52.516;13.420;2022-11-25T07:54:33;850.40;;;127.57;;
72065;SDS011;59939;52.516;13.420;2022-11-25T07:57:41;701.77;;;105.77;;
72065;SDS011;59939;52.516;13.420;2022-11-25T08:00:45;646.20;;;92.80;;
72065;SDS011;59939;52.516;13.420;2022-11-25T08:03:49;773.90;;;112.63;;
72065;SDS011;59939;52.516;13.420;2022-11-25T08:06:55;604.67;;;87.70;;
72065;SDS011;59939;52.516;13.420;2022-11-25T08:10:00;667.33;;;97.60;;
72065;SDS011;59939;52.516;13.420;2022-11-25T08:13:04;719.70;;;100.50;;
72065;SDS011;59939;52.516;13.420;2022-11-25T08:16:13;625.23;;;93.50;;
72065;SDS011;59939;52.516;13.420;2022-11-25T08:19:28;532.20;;;77.77;;
72065;SDS011;59939;52.516;13.420;2022-11-25T08:22:34;528.00;;;86.53;;
72065;SDS011;59939;52.516;13.420;2022-11-25T08:25:40;674.20;;;91.50;;
72065;SDS011;59939;52.516;13.420;2022-11-25T08:28:46;582.70;;;85.67;;
72065;SDS011;59939;52.516;13.420;2022-11-25T08:31:51;569.77;;;82.27;;
72065;SDS011;59939;52.516;13.420;2022-11-25T08:34:55;613.77;;;81.57;;
72065;SDS011;59939;52.516;13.420;2022-11-25T08:38:03;515.97;;;75.13;;
72065;SDS011;59939;52.516;13.420;2022-11-25T08:41:10;497.03;;;74.20;;
72065;SDS011;59939;52.516;13.420;2022-11-25T08:44:26;439.57;;;71.83;;
72065;SDS011;59939;52.516;13.420;2022-11-25T08:47:32;650.07;;;101.20;;
72065;SDS011;59939;52.516;13.420;2022-11-25T08:50:35;536.37;;;83.10;;
72065;SDS011;59939;52.516;13.420;2022-11-25T08:53:42;447.00;;;63.37;;
72065;SDS011;59939;52.516;13.420;2022-11-25T08:56:54;440.57;;;67.27;;
72065;SDS011;59939;52.516;13.420;2022-11-25T09:03:39;510.07;;;77.87;;
72065;SDS011;59939;52.516;13.420;2022-11-25T09:06:45;720.23;;;112.93;;
72065;SDS011;59939;52.516;13.420;2022-11-25T09:09:51;582.77;;;80.07;;
72065;SDS011;59939;52.516;13.420;2022-11-25T09:12:55;371.00;;;58.13;;
72065;SDS011;59939;52.516;13.420;2022-11-25T09:16:01;571.00;;;90.67;;
72065;SDS011;59939;52.516;13.420;2022-11-25T09:19:06;650.07;;;86.77;;
72065;SDS011;59939;52.516;13.420;2022-11-25T09:22:10;599.57;;;87.70;;
72065;SDS011;59939;52.516;13.420;2022-11-25T09:25:15;366.13;;;65.83;;
72065;SDS011;59939;52.516;13.420;2022-11-25T09:28:19;796.27;;;118.90;;
72065;SDS011;59939;52.516;13.420;2022-11-25T09:31:33;518.03;;;81.83;;
72065;SDS011;59939;52.516;13.420;2022-11-25T09:34:40;561.20;;;74.53;;
72065;SDS011;59939;52.516;13.420;2022-11-25T09:37:44;553.47;;;79.67;;
72065;SDS011;59939;52.516;13.420;2022-11-25T09:40:58;502.50;;;80.77;;
72065;SDS011;59939;52.516;13.420;2022-11-25T09:48:47;459.13;;;68.80;;
72065;SDS011;59939;52.516;13.420;2022-11-25T09:55:34;405.53;;;65.23;;
72065;SDS011;59939;52.516;13.420;2022-11-25T09:58:47;362.50;;;57.90;;
72065;SDS011;59939;52.516;13.420;2022-11-25T10:01:59;228.37;;;48.73;;
72065;SDS011;59939;52.516;13.420;2022-11-25T10:08:34;222.80;;;45.03;;
72065;SDS011;59939;52.516;13.420;2022-11-25T10:12:04;133.80;;;38.23;;
72065;SDS011;59939;52.516;13.420;2022-11-25T10:15:21;127.33;;;35.20;;
72065;SDS011;59939;52.516;13.420;2022-11-25T10:18:33;98.57;;;31.77;;
72065;SDS011;59939;52.516;13.420;2022-11-25T10:21:41;96.03;;;32.67;;
72065;SDS011;59939;52.516;13.420;2022-11-25T10:24:46;103.73;;;31.37;;
72065;SDS011;59939;52.516;13.420;2022-11-25T10:28:03;147.30;;;36.83;;
72065;SDS011;59939;52.516;13.420;2022-11-25T10:31:22;124.87;;;35.20;;
72065;SDS011;59939;52.516;13.420;2022-11-25T10:34:36;145.43;;;37.13;;
72065;SDS011;59939;52.516;13.420;2022-11-25T10:37:50;214.50;;;45.50;;
72065;SDS011;59939;52.516;13.420;2022-11-25T10:41:02;107.40;;;35.97;;
72065;SDS011;59939;52.516;13.420;2022-11-25T10:44:20;126.73;;;34.73;;
72065;SDS011;59939;52.516;13.420;2022-11-25T10:52:21;83.63;;;29.77;;
72065;SDS011;59939;52.516;13.420;2022-11-25T10:55:27;109.93;;;30.53;;
72065;SDS011;59939;52.516;13.420;2022-11-25T10:58:35;106.97;;;29.57;;
72065;SDS011;59939;52.516;13.420;2022-11-25T11:01:42;129.17;;;28.70;;
72065;SDS011;59939;52.516;13.420;2022-11-25T11:05:02;316.37;;;47.40;;
72065;SDS011;59939;52.516;13.420;2022-11-25T11:08:21;99.90;;;32.73;;
72065;SDS011;59939;52.516;13.420;2022-11-25T11:11:26;154.60;;;38.43;;
72065;SDS011;59939;52.516;13.420;2022-11-25T11:14:31;95.77;;;33.27;;
72065;SDS011;59939;52.516;13.420;2022-11-25T11:17:44;100.83;;;34.70;;
72065;SDS011;59939;52.516;13.420;2022-11-25T11:20:49;99.40;;;33.03;;
72065;SDS011;59939;52.516;13.420;2022-11-25T11:23:55;95.67;;;32.30;;
72065;SDS011;59939;52.516;13.420;2022-11-25T11:27:13;88.77;;;30.67;;
72065;SDS011;59939;52.516;13.420;2022-11-25T11:30:27;86.53;;;30.03;;
72065;SDS011;59939;52.516;13.420;2022-11-25T11:36:58;94.77;;;30.07;;
72065;SDS011;59939;52.516;13.420;2022-11-25T11:40:30;102.23;;;32.60;;
72065;SDS011;59939;52.516;13.420;2022-11-25T11:44:02;78.13;;;29.10;;
72065;SDS011;59939;52.516;13.420;2022-11-25T11:54:36;85.70;;;29.43;;
72065;SDS011;59939;52.516;13.420;2022-11-25T12:08:59;80.13;;;24.23;;
72065;SDS011;59939;52.516;13.420;2022-11-25T12:11:51;108.33;;;29.83;;
72065;SDS011;59939;52.516;13.420;2022-11-25T12:15:03;84.07;;;25.77;;
72065;SDS011;59939;52.516;13.420;2022-11-25T12:21:59;92.50;;;29.53;;
72065;SDS011;59939;52.516;13.420;2022-11-25T12:25:13;87.73;;;28.20;;
72065;SDS011;59939;52.516;13.420;2022-11-25T12:28:37;87.00;;;27.33;;
72065;SDS011;59939;52.516;13.420;2022-11-25T12:31:48;100.33;;;29.37;;
72065;SDS011;59939;52.516;13.420;2022-11-25T12:38:16;90.07;;;29.57;;
72065;SDS011;59939;52.516;13.420;2022-11-25T12:48:18;107.73;;;30.20;;
72065;SDS011;59939;52.516;13.420;2022-11-25T12:54:55;81.73;;;29.80;;
72065;SDS011;59939;52.516;13.420;2022-11-25T12:58:20;116.90;;;32.67;;
72065;SDS011;59939;52.516;13.420;2022-11-25T13:08:58;113.10;;;30.20;;
72065;SDS011;59939;52.516;13.420;2022-11-25T13:12:20;114.03;;;28.83;;
72065;SDS011;59939;52.516;13.420;2022-11-25T13:15:28;86.60;;;26.63;;
72065;SDS011;59939;52.516;13.420;2022-11-25T13:18:37;119.60;;;30.93;;
72065;SDS011;59939;52.516;13.420;2022-11-25T13:25:20;89.13;;;26.63;;
72065;SDS011;59939;52.516;13.420;2022-11-25T13:28:28;102.13;;;28.97;;
72065;SDS011;59939;52.516;13.420;2022-11-25T13:45:35;106.80;;;27.97;;
72065;SDS011;59939;52.516;13.420;2022-11-25T13:48:45;102.73;;;27.00;;
72065;SDS011;59939;52.516;13.420;2022-11-25T13:55:30;237.00;;;41.23;;
72065;SDS011;59939;52.516;13.420;2022-11-25T13:58:36;220.10;;;39.00;;
72065;SDS011;59939;52.516;13.420;2022-11-25T14:04:53;145.40;;;33.40;;
72065;SDS011;59939;52.516;13.420;2022-11-25T14:08:20;162.03;;;31.57;;
72065;SDS011;59939;52.516;13.420;2022-11-25T14:26:44;176.40;;;35.03;;
72065;SDS011;59939;52.516;13.420;2022-11-25T14:29:54;205.40;;;39.43;;
72065;SDS011;59939;52.516;13.420;2022-11-25T14:33:10;157.30;;;35.63;;
72065;SDS011;59939;52.516;13.420;2022-11-25T14:36:24;121.30;;;30.10;;
72065;SDS011;59939;52.516;13.420;2022-11-25T14:40:07;238.20;;;41.27;;
72065;SDS011;59939;52.516;13.420;2022-11-25T14:43:21;255.40;;;44.37;;
72065;SDS011;59939;52.516;13.420;2022-11-25T14:46:55;211.77;;;39.10;;
72065;SDS011;59939;52.516;13.420;2022-11-25T14:50:03;128.20;;;32.70;;
72065;SDS011;59939;52.516;13.420;2022-11-25T14:53:30;215.50;;;42.57;;
72065;SDS011;59939;52.516;13.420;2022-11-25T14:56:46;305.80;;;49.13;;
72065;SDS011;59939;52.516;13.420;2022-11-25T14:59:51;224.63;;;40.50;;
72065;SDS011;59939;52.516;13.420;2022-11-25T15:03:01;191.90;;;35.27;;
72065;SDS011;59939;52.516;13.420;2022-11-25T15:06:14;308.50;;;48.93;;
72065;SDS011;59939;52.516;13.420;2022-11-25T15:09:23;227.20;;;45.20;;
72065;SDS011;59939;52.516;13.420;2022-11-25T15:12:30;227.00;;;42.80;;
72065;SDS011;59939;52.516;13.420;2022-11-25T15:19:17;124.90;;;31.73;;
72065;SDS011;59939;52.516;13.420;2022-11-25T15:22:26;161.40;;;36.80;;
72065;SDS011;59939;52.516;13.420;2022-11-25T15:25:47;150.40;;;35.27;;
72065;SDS011;59939;52.516;13.420;2022-11-25T15:29:03;157.53;;;36.50;;
72065;SDS011;59939;52.516;13.420;2022-11-25T15:32:14;187.50;;;42.33;;
72065;SDS011;59939;52.516;13.420;2022-11-25T15:35:25;152.40;;;35.93;;
72065;SDS011;59939;52.516;13.420;2022-11-25T15:42:04;169.73;;;40.67;;
72065;SDS011;59939;52.516;13.420;2022-11-25T15:45:29;139.43;;;34.57;;
72065;SDS011;59939;52.516;13.420;2022-11-25T15:48:39;131.70;;;37.23;;
72065;SDS011;59939;52.516;13.420;2022-11-25T15:55:35;228.80;;;46.53;;
72065;SDS011;59939;52.516;13.420;2022-11-25T15:58:41;125.63;;;34.07;;
72065;SDS011;59939;52.516;13.420;2022-11-25T16:01:47;219.57;;;46.27;;
72065;SDS011;59939;52.516;13.420;2022-11-25T16:04:51;136.73;;;37.63;;
72065;SDS011;59939;52.516;13.420;2022-11-25T16:07:57;141.57;;;37.03;;
72065;SDS011;59939;52.516;13.420;2022-11-25T16:11:25;127.40;;;35.97;;
72065;SDS011;59939;52.516;13.420;2022-11-25T16:14:35;156.87;;;39.23;;
72065;SDS011;59939;52.516;13.420;2022-11-25T16:17:42;141.10;;;37.90;;
72065;SDS011;59939;52.516;13.420;2022-11-25T16:20:51;133.27;;;40.07;;
72065;SDS011;59939;52.516;13.420;2022-11-25T16:27:24;190.90;;;45.57;;
72065;SDS011;59939;52.516;13.420;2022-11-25T16:30:31;225.27;;;48.50;;
72065;SDS011;59939;52.516;13.420;2022-11-25T16:33:42;167.27;;;45.53;;
72065;SDS011;59939;52.516;13.420;2022-11-25T16:36:47;161.87;;;43.00;;
72065;SDS011;59939;52.516;13.420;2022-11-25T16:39:51;131.07;;;37.27;;
72065;SDS011;59939;52.516;13.420;2022-11-25T16:43:15;134.37;;;36.60;;
72065;SDS011;59939;52.516;13.420;2022-11-25T16:46:23;162.20;;;43.00;;
72065;SDS011;59939;52.516;13.420;2022-11-25T16:49:29;147.83;;;39.07;;
72065;SDS011;59939;52.516;13.420;2022-11-25T16:52:37;129.27;;;38.10;;
72065;SDS011;59939;52.516;13.420;2022-11-25T16:55:41;167.53;;;41.23;;
72065;SDS011;59939;52.516;13.420;2022-11-25T16:58:49;148.80;;;38.70;;
72065;SDS011;59939;52.516;13.420;2022-11-25T17:01:55;126.37;;;34.57;;
72065;SDS011;59939;52.516;13.420;2022-11-25T17:05:17;113.53;;;35.53;;
72065;SDS011;59939;52.516;13.420;2022-11-25T17:08:23;156.70;;;38.93;;
72065;SDS011;59939;52.516;13.420;2022-11-25T17:11:44;153.13;;;37.67;;
72065;SDS011;59939;52.516;13.420;2022-11-25T17:14:54;124.83;;;34.27;;
72065;SDS011;59939;52.516;13.420;2022-11-25T17:18:09;121.37;;;34.13;;
72065;SDS011;59939;52.516;13.420;2022-11-25T17:21:15;107.37;;;31.90;;
72065;SDS011;59939;52.516;13.420;2022-11-25T17:24:21;117.43;;;34.53;;
72065;SDS011;59939;52.516;13.420;2022-11-25T17:27:27;133.47;;;35.37;;
72065;SDS011;59939;52.516;13.420;2022-11-25T17:30:47;93.47;;;31.97;;
72065;SDS011;59939;52.516;13.420;2022-11-25T17:33:58;116.30;;;33.20;;
72065;SDS011;59939;52.516;13.420;2022-11-25T17:37:12;135.03;;;36.77;;
72065;SDS011;59939;52.516;13.420;2022-11-25T17:40:17;117.90;;;34.40;;
72065;SDS011;59939;52.516;13.420;2022-11-25T17:43:21;100.13;;;32.60;;
72065;SDS011;59939;52.516;13.420;2022-11-25T17:46:25;124.33;;;35.37;;
72065;SDS011;59939;52.516;13.420;2022-11-25T17:49:35;114.03;;;35.27;;
72065;SDS011;59939;52.516;13.420;2022-11-25T17:52:39;159.37;;;38.37;;
72065;SDS011;59939;52.516;13.420;2022-11-25T17:55:43;104.83;;;31.50;;
72065;SDS011;59939;52.516;13.420;2022-11-25T17:58:47;105.00;;;31.23;;
72065;SDS011;59939;52.516;13.420;2022-11-25T18:01:54;113.47;;;33.13;;
72065;SDS011;59939;52.516;13.420;2022-11-25T18:04:58;117.70;;;35.87;;
72065;SDS011;59939;52.516;13.420;2022-11-25T18:08:05;99.33;;;35.93;;
72065;SDS011;59939;52.516;13.420;2022-11-25T18:11:12;95.13;;;35.20;;
72065;SDS011;59939;52.516;13.420;2022-11-25T18:14:22;97.93;;;35.63;;
72065;SDS011;59939;52.516;13.420;2022-11-25T18:17:39;92.03;;;36.60;;
72065;SDS011;59939;52.516;13.420;2022-11-25T18:20:46;91.13;;;42.30;;
72065;SDS011;59939;52.516;13.420;2022-11-25T18:23:51;164.40;;;50.30;;
72065;SDS011;59939;52.516;13.420;2022-11-25T18:26:56;133.60;;;48.40;;
72065;SDS011;59939;52.516;13.420;2022-11-25T18:30:01;93.17;;;43.50;;
72065;SDS011;59939;52.516;13.420;2022-11-25T18:33:14;120.20;;;42.70;;
72065;SDS011;59939;52.516;13.420;2022-11-25T18:36:20;104.67;;;41.73;;
72065;SDS011;59939;52.516;13.420;2022-11-25T18:39:31;83.20;;;38.43;;
72065;SDS011;59939;52.516;13.420;2022-11-25T18:42:35;84.67;;;40.90;;
72065;SDS011;59939;52.516;13.420;2022-11-25T18:45:39;93.80;;;39.93;;
72065;SDS011;59939;52.516;13.420;2022-11-25T18:48:47;99.90;;;40.63;;
72065;SDS011;59939;52.516;13.420;2022-11-25T18:51:53;78.27;;;39.50;;
72065;SDS011;59939;52.516;13.420;2022-11-25T18:55:06;110.27;;;42.40;;
72065;SDS011;59939;52.516;13.420;2022-11-25T18:58:17;111.87;;;39.53;;
72065;SDS011;59939;52.516;13.420;2022-11-25T19:01:25;103.33;;;38.40;;
72065;SDS011;59939;52.516;13.420;2022-11-25T19:04:37;115.93;;;40.80;;
72065;SDS011;59939;52.516;13.420;2022-11-25T19:07:49;91.93;;;37.27;;
72065;SDS011;59939;52.516;13.420;2022-11-25T19:10:58;89.50;;;39.83;;
72065;SDS011;59939;52.516;13.420;2022-11-25T19:14:07;84.60;;;37.47;;
72065;SDS011;59939;52.516;13.420;2022-11-25T19:17:22;97.23;;;41.53;;
72065;SDS011;59939;52.516;13.420;2022-11-25T19:20:41;92.97;;;38.70;;
72065;SDS011;59939;52.516;13.420;2022-11-25T19:23:48;114.70;;;41.40;;
72065;SDS011;59939;52.516;13.420;2022-11-25T19:26:53;83.87;;;38.90;;
72065;SDS011;59939;52.516;13.420;2022-11-25T19:29:59;97.73;;;39.67;;
72065;SDS011;59939;52.516;13.420;2022-11-25T19:33:13;94.90;;;40.07;;
72065;SDS011;59939;52.516;13.420;2022-11-25T19:36:25;94.83;;;38.57;;
72065;SDS011;59939;52.516;13.420;2022-11-25T19:39:44;85.93;;;40.70;;
72065;SDS011;59939;52.516;13.420;2022-11-25T19:42:49;179.70;;;50.63;;
72065;SDS011;59939;52.516;13.420;2022-11-25T19:45:54;102.63;;;44.70;;
72065;SDS011;59939;52.516;13.420;2022-11-25T19:49:00;87.03;;;40.43;;
72065;SDS011;59939;52.516;13.420;2022-11-25T19:52:09;97.30;;;42.63;;
72065;SDS011;59939;52.516;13.420;2022-11-25T19:55:24;86.77;;;40.00;;
72065;SDS011;59939;52.516;13.420;2022-11-25T19:58:35;95.90;;;41.03;;
72065;SDS011;59939;52.516;13.420;2022-11-25T20:01:45;124.27;;;44.80;;